sensor_id;sensor_type;location;lat;lon;timestamp;temperature;humidity
52387;DHT22;38317;53.084;6.960;2022-09-09T00:02:04;14.70;99.90
52387;DHT22;38317;53.084;6.960;2022-09-09T00:04:36;14.80;99.90
52387;DHT22;38317;53.084;6.960;2022-09-09T00:07:30;14.70;99.90
52387;DHT22;38317;53.084;6.960;2022-09-09T00:15:42;14.70;99.90
52387;DHT22;38317;53.084;6.960;2022-09-09T00:18:25;14.70;99.90
52387;DHT22;38317;53.084;6.960;2022-09-09T00:21:11;14.70;99.90
52387;DHT22;38317;53.084;6.960;2022-09-09T00:23:39;14.70;99.90
52387;DHT22;38317;53.084;6.960;2022-09-09T00:31:34;14.60;99.90
52387;DHT22;38317;53.084;6.960;2022-09-09T00:34:23;14.60;99.90
52387;DHT22;38317;53.084;6.960;2022-09-09T00:36:52;14.60;99.90
52387;DHT22;38317;53.084;6.960;2022-09-09T00:39:32;14.50;99.90
52387;DHT22;38317;53.084;6.960;2022-09-09T00:47:50;14.40;99.90
52387;DHT22;38317;53.084;6.960;2022-09-09T00:55:56;14.40;99.90
52387;DHT22;38317;53.084;6.960;2022-09-09T00:58:26;14.30;99.90
52387;DHT22;38317;53.084;6.960;2022-09-09T01:01:12;14.30;99.90
52387;DHT22;38317;53.084;6.960;2022-09-09T01:03:55;14.30;99.90
52387;DHT22;38317;53.084;6.960;2022-09-09T01:06:34;14.30;99.90
52387;DHT22;38317;53.084;6.960;2022-09-09T01:17:17;14.20;99.90
52387;DHT22;38317;53.084;6.960;2022-09-09T01:25:15;14.20;99.90
52387;DHT22;38317;53.084;6.960;2022-09-09T01:27:44;14.20;99.90
52387;DHT22;38317;53.084;6.960;2022-09-09T01:30:13;14.20;99.90
52387;DHT22;38317;53.084;6.960;2022-09-09T01:32:50;14.10;99.90
52387;DHT22;38317;53.084;6.960;2022-09-09T01:37:56;14.10;99.90
52387;DHT22;38317;53.084;6.960;2022-09-09T01:40:24;14.10;99.90
52387;DHT22;38317;53.084;6.960;2022-09-09T01:42:51;14.10;99.90
52387;DHT22;38317;53.084;6.960;2022-09-09T01:45:16;14.10;99.90
52387;DHT22;38317;53.084;6.960;2022-09-09T01:47:43;14.10;99.90
52387;DHT22;38317;53.084;6.960;2022-09-09T01:50:11;14.10;99.90
52387;DHT22;38317;53.084;6.960;2022-09-09T01:52:38;14.00;99.90
52387;DHT22;38317;53.084;6.960;2022-09-09T01:55:05;14.00;99.90
52387;DHT22;38317;53.084;6.960;2022-09-09T01:57:46;14.00;99.90
52387;DHT22;38317;53.084;6.960;2022-09-09T02:00:15;14.00;99.90
52387;DHT22;38317;53.084;6.960;2022-09-09T02:05:36;14.00;99.90
52387;DHT22;38317;53.084;6.960;2022-09-09T02:08:11;14.00;99.90
52387;DHT22;38317;53.084;6.960;2022-09-09T02:10:48;14.00;99.90
52387;DHT22;38317;53.084;6.960;2022-09-09T02:13:20;13.90;99.90
52387;DHT22;38317;53.084;6.960;2022-09-09T02:15:56;13.90;99.90
52387;DHT22;38317;53.084;6.960;2022-09-09T02:18:50;13.90;99.90
52387;DHT22;38317;53.084;6.960;2022-09-09T02:21:17;13.90;99.90
52387;DHT22;38317;53.084;6.960;2022-09-09T02:23:44;13.90;99.90
52387;DHT22;38317;53.084;6.960;2022-09-09T02:26:13;13.90;99.90
52387;DHT22;38317;53.084;6.960;2022-09-09T02:28:46;14.00;99.90
52387;DHT22;38317;53.084;6.960;2022-09-09T02:31:13;14.00;99.90
52387;DHT22;38317;53.084;6.960;2022-09-09T02:33:46;14.00;99.90
52387;DHT22;38317;53.084;6.960;2022-09-09T02:36:15;14.00;99.90
52387;DHT22;38317;53.084;6.960;2022-09-09T02:38:46;14.00;99.90
52387;DHT22;38317;53.084;6.960;2022-09-09T02:41:38;14.00;99.90
52387;DHT22;38317;53.084;6.960;2022-09-09T02:44:12;14.10;99.90
52387;DHT22;38317;53.084;6.960;2022-09-09T02:49:59;14.10;99.90
52387;DHT22;38317;53.084;6.960;2022-09-09T02:57:53;14.20;99.90
52387;DHT22;38317;53.084;6.960;2022-09-09T03:00:26;14.20;99.90
52387;DHT22;38317;53.084;6.960;2022-09-09T03:02:53;14.20;99.90
52387;DHT22;38317;53.084;6.960;2022-09-09T03:05:20;14.20;99.90
52387;DHT22;38317;53.084;6.960;2022-09-09T03:07:47;14.30;99.90
52387;DHT22;38317;53.084;6.960;2022-09-09T03:10:13;14.30;99.90
52387;DHT22;38317;53.084;6.960;2022-09-09T03:12:38;14.30;99.90
52387;DHT22;38317;53.084;6.960;2022-09-09T03:15:05;14.30;99.90
52387;DHT22;38317;53.084;6.960;2022-09-09T03:17:31;14.30;99.90
52387;DHT22;38317;53.084;6.960;2022-09-09T03:19:57;14.30;99.90
52387;DHT22;38317;53.084;6.960;2022-09-09T03:22:24;14.30;99.90
52387;DHT22;38317;53.084;6.960;2022-09-09T03:24:51;14.40;99.90
52387;DHT22;38317;53.084;6.960;2022-09-09T03:27:17;14.40;99.90
52387;DHT22;38317;53.084;6.960;2022-09-09T03:29:45;14.40;99.90
52387;DHT22;38317;53.084;6.960;2022-09-09T03:32:14;14.40;99.90
52387;DHT22;38317;53.084;6.960;2022-09-09T03:34:43;14.50;99.90
52387;DHT22;38317;53.084;6.960;2022-09-09T03:37:09;14.50;99.90
52387;DHT22;38317;53.084;6.960;2022-09-09T03:39:34;14.50;99.90
52387;DHT22;38317;53.084;6.960;2022-09-09T03:42:00;14.50;99.90
52387;DHT22;38317;53.084;6.960;2022-09-09T03:44:30;14.50;99.90
52387;DHT22;38317;53.084;6.960;2022-09-09T03:46:56;14.50;99.90
52387;DHT22;38317;53.084;6.960;2022-09-09T03:49:21;14.50;99.90
52387;DHT22;38317;53.084;6.960;2022-09-09T03:51:48;14.50;99.90
52387;DHT22;38317;53.084;6.960;2022-09-09T03:54:14;14.50;99.90
52387;DHT22;38317;53.084;6.960;2022-09-09T03:56:39;14.60;99.90
52387;DHT22;38317;53.084;6.960;2022-09-09T03:59:07;14.50;99.90
52387;DHT22;38317;53.084;6.960;2022-09-09T04:01:34;14.60;99.90
52387;DHT22;38317;53.084;6.960;2022-09-09T04:04:00;14.60;99.90
52387;DHT22;38317;53.084;6.960;2022-09-09T04:06:28;14.60;99.90
52387;DHT22;38317;53.084;6.960;2022-09-09T04:08:54;14.60;99.90
52387;DHT22;38317;53.084;6.960;2022-09-09T04:11:20;14.60;99.90
52387;DHT22;38317;53.084;6.960;2022-09-09T04:13:46;14.60;99.90
52387;DHT22;38317;53.084;6.960;2022-09-09T04:16:13;14.60;99.90
52387;DHT22;38317;53.084;6.960;2022-09-09T04:18:40;14.60;99.90
52387;DHT22;38317;53.084;6.960;2022-09-09T04:21:06;14.60;99.90
52387;DHT22;38317;53.084;6.960;2022-09-09T04:23:33;14.70;99.90
52387;DHT22;38317;53.084;6.960;2022-09-09T04:26:01;14.60;99.90
52387;DHT22;38317;53.084;6.960;2022-09-09T04:28:29;14.60;99.90
52387;DHT22;38317;53.084;6.960;2022-09-09T04:30:56;14.60;99.90
52387;DHT22;38317;53.084;6.960;2022-09-09T04:33:25;14.60;99.90
52387;DHT22;38317;53.084;6.960;2022-09-09T04:35:53;14.60;99.90
52387;DHT22;38317;53.084;6.960;2022-09-09T04:38:19;14.50;99.90
52387;DHT22;38317;53.084;6.960;2022-09-09T04:40:49;14.50;99.90
52387;DHT22;38317;53.084;6.960;2022-09-09T04:43:17;14.50;99.90
52387;DHT22;38317;53.084;6.960;2022-09-09T04:45:47;14.50;99.90
52387;DHT22;38317;53.084;6.960;2022-09-09T04:48:13;14.50;99.90
52387;DHT22;38317;53.084;6.960;2022-09-09T04:50:39;14.50;99.90
52387;DHT22;38317;53.084;6.960;2022-09-09T04:53:08;14.50;99.90
52387;DHT22;38317;53.084;6.960;2022-09-09T04:55:34;14.50;99.90
52387;DHT22;38317;53.084;6.960;2022-09-09T04:58:07;14.50;99.90
52387;DHT22;38317;53.084;6.960;2022-09-09T05:00:33;14.50;99.90
52387;DHT22;38317;53.084;6.960;2022-09-09T05:03:05;14.40;99.90
52387;DHT22;38317;53.084;6.960;2022-09-09T05:05:32;14.40;99.90
52387;DHT22;38317;53.084;6.960;2022-09-09T05:08:06;14.40;99.90
52387;DHT22;38317;53.084;6.960;2022-09-09T05:10:33;14.40;99.90
52387;DHT22;38317;53.084;6.960;2022-09-09T05:13:00;14.40;99.90
52387;DHT22;38317;53.084;6.960;2022-09-09T05:15:25;14.40;99.90
52387;DHT22;38317;53.084;6.960;2022-09-09T05:17:51;14.40;99.90
52387;DHT22;38317;53.084;6.960;2022-09-09T05:20:18;14.40;99.90
52387;DHT22;38317;53.084;6.960;2022-09-09T05:22:44;14.40;99.90
52387;DHT22;38317;53.084;6.960;2022-09-09T05:25:10;14.40;99.90
52387;DHT22;38317;53.084;6.960;2022-09-09T05:27:36;14.40;99.90
52387;DHT22;38317;53.084;6.960;2022-09-09T05:30:02;14.40;99.90
52387;DHT22;38317;53.084;6.960;2022-09-09T05:32:29;14.40;99.90
52387;DHT22;38317;53.084;6.960;2022-09-09T05:34:57;14.40;99.90
52387;DHT22;38317;53.084;6.960;2022-09-09T05:37:24;14.40;99.90
52387;DHT22;38317;53.084;6.960;2022-09-09T05:39:51;14.40;99.90
52387;DHT22;38317;53.084;6.960;2022-09-09T05:42:17;14.40;99.90
52387;DHT22;38317;53.084;6.960;2022-09-09T05:44:42;14.40;99.90
52387;DHT22;38317;53.084;6.960;2022-09-09T05:47:10;14.40;99.90
52387;DHT22;38317;53.084;6.960;2022-09-09T05:49:36;14.40;99.90
52387;DHT22;38317;53.084;6.960;2022-09-09T05:52:02;14.40;99.90
52387;DHT22;38317;53.084;6.960;2022-09-09T05:54:29;14.40;99.90
52387;DHT22;38317;53.084;6.960;2022-09-09T05:56:55;14.40;99.90
52387;DHT22;38317;53.084;6.960;2022-09-09T05:59:21;14.40;99.90
52387;DHT22;38317;53.084;6.960;2022-09-09T06:01:48;14.40;99.90
52387;DHT22;38317;53.084;6.960;2022-09-09T06:04:14;14.40;99.90
52387;DHT22;38317;53.084;6.960;2022-09-09T06:06:40;14.40;99.90
52387;DHT22;38317;53.084;6.960;2022-09-09T06:09:08;14.40;99.90
52387;DHT22;38317;53.084;6.960;2022-09-09T06:11:38;14.50;99.90
52387;DHT22;38317;53.084;6.960;2022-09-09T06:14:05;14.50;99.90
52387;DHT22;38317;53.084;6.960;2022-09-09T06:16:31;14.50;99.90
52387;DHT22;38317;53.084;6.960;2022-09-09T06:19:01;14.50;99.90
52387;DHT22;38317;53.084;6.960;2022-09-09T06:21:36;14.60;99.90
52387;DHT22;38317;53.084;6.960;2022-09-09T06:24:03;14.60;99.90
52387;DHT22;38317;53.084;6.960;2022-09-09T06:26:37;14.60;99.90
52387;DHT22;38317;53.084;6.960;2022-09-09T06:29:04;14.60;99.90
52387;DHT22;38317;53.084;6.960;2022-09-09T06:31:31;14.60;99.90
52387;DHT22;38317;53.084;6.960;2022-09-09T06:34:00;14.60;99.90
52387;DHT22;38317;53.084;6.960;2022-09-09T06:36:31;14.60;99.90
52387;DHT22;38317;53.084;6.960;2022-09-09T06:38:58;14.60;99.90
52387;DHT22;38317;53.084;6.960;2022-09-09T06:41:27;14.70;99.90
52387;DHT22;38317;53.084;6.960;2022-09-09T06:43:52;14.70;99.90
52387;DHT22;38317;53.084;6.960;2022-09-09T06:46:20;14.80;99.90
52387;DHT22;38317;53.084;6.960;2022-09-09T06:48:47;14.80;99.90
52387;DHT22;38317;53.084;6.960;2022-09-09T06:53:41;14.90;99.90
52387;DHT22;38317;53.084;6.960;2022-09-09T06:58:45;14.90;99.90
52387;DHT22;38317;53.084;6.960;2022-09-09T07:01:13;15.00;99.90
52387;DHT22;38317;53.084;6.960;2022-09-09T07:03:40;15.00;99.90
52387;DHT22;38317;53.084;6.960;2022-09-09T07:06:08;15.00;99.90
52387;DHT22;38317;53.084;6.960;2022-09-09T07:08:34;15.10;99.90
52387;DHT22;38317;53.084;6.960;2022-09-09T07:11:04;15.10;99.90
52387;DHT22;38317;53.084;6.960;2022-09-09T07:13:31;15.20;99.90
52387;DHT22;38317;53.084;6.960;2022-09-09T07:16:09;15.20;99.90
52387;DHT22;38317;53.084;6.960;2022-09-09T07:18:35;15.20;99.90
52387;DHT22;38317;53.084;6.960;2022-09-09T07:21:03;15.30;99.90
52387;DHT22;38317;53.084;6.960;2022-09-09T07:23:29;15.30;99.90
52387;DHT22;38317;53.084;6.960;2022-09-09T07:25:59;15.40;99.90
52387;DHT22;38317;53.084;6.960;2022-09-09T07:28:25;15.40;99.90
52387;DHT22;38317;53.084;6.960;2022-09-09T07:31:00;15.50;99.90
52387;DHT22;38317;53.084;6.960;2022-09-09T07:33:29;15.60;99.90
52387;DHT22;38317;53.084;6.960;2022-09-09T07:36:06;15.60;99.90
52387;DHT22;38317;53.084;6.960;2022-09-09T07:38:40;15.70;99.90
52387;DHT22;38317;53.084;6.960;2022-09-09T07:41:07;15.80;99.90
52387;DHT22;38317;53.084;6.960;2022-09-09T07:43:41;15.80;99.90
52387;DHT22;38317;53.084;6.960;2022-09-09T07:46:08;15.90;99.90
52387;DHT22;38317;53.084;6.960;2022-09-09T07:48:35;15.90;99.90
52387;DHT22;38317;53.084;6.960;2022-09-09T07:51:06;16.00;99.90
52387;DHT22;38317;53.084;6.960;2022-09-09T07:53:33;16.00;99.90
52387;DHT22;38317;53.084;6.960;2022-09-09T07:56:04;16.10;99.90
52387;DHT22;38317;53.084;6.960;2022-09-09T07:58:30;16.20;99.90
52387;DHT22;38317;53.084;6.960;2022-09-09T08:00:56;16.30;99.90
52387;DHT22;38317;53.084;6.960;2022-09-09T08:03:23;16.40;99.90
52387;DHT22;38317;53.084;6.960;2022-09-09T08:05:49;16.50;99.90
52387;DHT22;38317;53.084;6.960;2022-09-09T08:08:15;16.50;99.90
52387;DHT22;38317;53.084;6.960;2022-09-09T08:10:42;16.60;99.90
52387;DHT22;38317;53.084;6.960;2022-09-09T08:13:08;16.70;99.90
52387;DHT22;38317;53.084;6.960;2022-09-09T08:15:34;16.80;99.90
52387;DHT22;38317;53.084;6.960;2022-09-09T08:18:00;16.80;99.90
52387;DHT22;38317;53.084;6.960;2022-09-09T08:20:26;16.80;99.90
52387;DHT22;38317;53.084;6.960;2022-09-09T08:22:52;16.90;99.90
52387;DHT22;38317;53.084;6.960;2022-09-09T08:25:18;16.90;99.90
52387;DHT22;38317;53.084;6.960;2022-09-09T08:27:44;17.00;99.90
52387;DHT22;38317;53.084;6.960;2022-09-09T08:30:11;17.00;99.90
52387;DHT22;38317;53.084;6.960;2022-09-09T08:32:36;17.00;99.90
52387;DHT22;38317;53.084;6.960;2022-09-09T08:35:03;17.10;99.90
52387;DHT22;38317;53.084;6.960;2022-09-09T08:37:28;17.20;99.90
52387;DHT22;38317;53.084;6.960;2022-09-09T08:39:54;17.30;99.90
52387;DHT22;38317;53.084;6.960;2022-09-09T08:42:34;17.40;99.90
52387;DHT22;38317;53.084;6.960;2022-09-09T08:45:37;17.40;99.90
52387;DHT22;38317;53.084;6.960;2022-09-09T08:50:50;17.40;99.90
52387;DHT22;38317;53.084;6.960;2022-09-09T08:53:19;17.40;99.90
52387;DHT22;38317;53.084;6.960;2022-09-09T08:58:48;17.40;99.90
52387;DHT22;38317;53.084;6.960;2022-09-09T09:12:23;18.00;99.90
52387;DHT22;38317;53.084;6.960;2022-09-09T09:14:50;18.10;99.90
52387;DHT22;38317;53.084;6.960;2022-09-09T09:17:20;18.20;99.90
52387;DHT22;38317;53.084;6.960;2022-09-09T09:19:48;18.20;99.90
52387;DHT22;38317;53.084;6.960;2022-09-09T09:22:30;18.20;99.90
52387;DHT22;38317;53.084;6.960;2022-09-09T09:27:48;18.30;99.90
52387;DHT22;38317;53.084;6.960;2022-09-09T09:30:18;18.30;99.90
52387;DHT22;38317;53.084;6.960;2022-09-09T09:33:01;18.30;99.90
52387;DHT22;38317;53.084;6.960;2022-09-09T09:35:28;18.20;99.90
52387;DHT22;38317;53.084;6.960;2022-09-09T09:37:54;18.20;99.90
52387;DHT22;38317;53.084;6.960;2022-09-09T09:40:22;18.20;99.90
52387;DHT22;38317;53.084;6.960;2022-09-09T09:42:58;18.20;99.90
52387;DHT22;38317;53.084;6.960;2022-09-09T09:45:40;18.30;99.90
52387;DHT22;38317;53.084;6.960;2022-09-09T09:48:10;18.50;99.90
52387;DHT22;38317;53.084;6.960;2022-09-09T09:50:50;18.90;99.90
52387;DHT22;38317;53.084;6.960;2022-09-09T09:53:38;19.20;99.90
52387;DHT22;38317;53.084;6.960;2022-09-09T09:56:06;19.50;99.90
52387;DHT22;38317;53.084;6.960;2022-09-09T09:58:57;19.60;99.90
52387;DHT22;38317;53.084;6.960;2022-09-09T10:01:27;19.60;99.90
52387;DHT22;38317;53.084;6.960;2022-09-09T10:03:57;19.70;99.90
52387;DHT22;38317;53.084;6.960;2022-09-09T10:06:34;19.90;99.90
52387;DHT22;38317;53.084;6.960;2022-09-09T10:09:02;19.80;99.90
52387;DHT22;38317;53.084;6.960;2022-09-09T10:11:47;19.70;99.90
52387;DHT22;38317;53.084;6.960;2022-09-09T10:22:35;20.10;99.90
52387;DHT22;38317;53.084;6.960;2022-09-09T10:33:10;20.80;99.90
52387;DHT22;38317;53.084;6.960;2022-09-09T10:35:48;20.80;99.90
52387;DHT22;38317;53.084;6.960;2022-09-09T10:38:43;20.80;99.90
52387;DHT22;38317;53.084;6.960;2022-09-09T10:41:29;20.60;99.90
52387;DHT22;38317;53.084;6.960;2022-09-09T10:44:22;20.60;99.90
52387;DHT22;38317;53.084;6.960;2022-09-09T10:50:08;20.70;99.90
52387;DHT22;38317;53.084;6.960;2022-09-09T10:55:43;20.20;99.90
52387;DHT22;38317;53.084;6.960;2022-09-09T10:58:17;20.10;99.90
52387;DHT22;38317;53.084;6.960;2022-09-09T11:00:48;20.30;99.90
52387;DHT22;38317;53.084;6.960;2022-09-09T11:03:22;20.40;99.90
52387;DHT22;38317;53.084;6.960;2022-09-09T11:05:55;20.50;99.90
52387;DHT22;38317;53.084;6.960;2022-09-09T11:08:28;20.60;99.90
52387;DHT22;38317;53.084;6.960;2022-09-09T11:11:10;20.80;99.90
52387;DHT22;38317;53.084;6.960;2022-09-09T11:16:29;21.10;99.90
52387;DHT22;38317;53.084;6.960;2022-09-09T11:19:21;21.10;99.90
52387;DHT22;38317;53.084;6.960;2022-09-09T11:21:47;21.00;99.90
52387;DHT22;38317;53.084;6.960;2022-09-09T11:26:53;21.20;99.90
52387;DHT22;38317;53.084;6.960;2022-09-09T11:38:28;21.90;99.90
52387;DHT22;38317;53.084;6.960;2022-09-09T11:41:01;22.10;99.90
52387;DHT22;38317;53.084;6.960;2022-09-09T11:43:40;22.30;99.90
52387;DHT22;38317;53.084;6.960;2022-09-09T11:46:07;22.40;99.90
52387;DHT22;38317;53.084;6.960;2022-09-09T11:48:40;22.30;99.90
52387;DHT22;38317;53.084;6.960;2022-09-09T11:51:30;22.40;99.90
52387;DHT22;38317;53.084;6.960;2022-09-09T11:54:02;22.50;99.90
52387;DHT22;38317;53.084;6.960;2022-09-09T11:56:41;22.30;99.90
52387;DHT22;38317;53.084;6.960;2022-09-09T11:59:26;22.20;99.90
52387;DHT22;38317;53.084;6.960;2022-09-09T12:02:14;22.10;99.90
52387;DHT22;38317;53.084;6.960;2022-09-09T12:05:28;21.90;99.90
52387;DHT22;38317;53.084;6.960;2022-09-09T12:08:00;21.70;99.90
52387;DHT22;38317;53.084;6.960;2022-09-09T12:10:29;21.30;99.90
52387;DHT22;38317;53.084;6.960;2022-09-09T12:12:55;21.10;99.90
52387;DHT22;38317;53.084;6.960;2022-09-09T12:15:32;21.00;99.90
52387;DHT22;38317;53.084;6.960;2022-09-09T12:17:59;20.90;99.90
52387;DHT22;38317;53.084;6.960;2022-09-09T12:20:34;20.80;99.90
52387;DHT22;38317;53.084;6.960;2022-09-09T12:25:58;20.80;99.90
52387;DHT22;38317;53.084;6.960;2022-09-09T12:28:47;20.90;99.90
52387;DHT22;38317;53.084;6.960;2022-09-09T12:33:51;21.10;99.90
52387;DHT22;38317;53.084;6.960;2022-09-09T12:36:18;21.10;99.90
52387;DHT22;38317;53.084;6.960;2022-09-09T12:38:45;21.00;99.90
52387;DHT22;38317;53.084;6.960;2022-09-09T12:41:23;20.90;99.90
52387;DHT22;38317;53.084;6.960;2022-09-09T12:43:50;20.90;99.90
52387;DHT22;38317;53.084;6.960;2022-09-09T12:46:38;20.80;99.90
52387;DHT22;38317;53.084;6.960;2022-09-09T12:49:20;21.10;99.90
52387;DHT22;38317;53.084;6.960;2022-09-09T12:51:50;21.50;99.90
52387;DHT22;38317;53.084;6.960;2022-09-09T12:54:15;21.70;99.90
52387;DHT22;38317;53.084;6.960;2022-09-09T12:56:45;21.80;99.90
52387;DHT22;38317;53.084;6.960;2022-09-09T12:59:24;21.80;99.90
52387;DHT22;38317;53.084;6.960;2022-09-09T13:01:57;21.80;99.90
52387;DHT22;38317;53.084;6.960;2022-09-09T13:04:24;21.90;99.90
52387;DHT22;38317;53.084;6.960;2022-09-09T13:06:50;22.00;99.90
52387;DHT22;38317;53.084;6.960;2022-09-09T13:09:18;22.20;99.90
52387;DHT22;38317;53.084;6.960;2022-09-09T13:11:50;22.40;99.90
52387;DHT22;38317;53.084;6.960;2022-09-09T13:14:29;22.60;99.90
52387;DHT22;38317;53.084;6.960;2022-09-09T13:17:02;22.70;99.90
52387;DHT22;38317;53.084;6.960;2022-09-09T13:19:33;22.70;99.90
52387;DHT22;38317;53.084;6.960;2022-09-09T13:22:14;22.70;99.90
52387;DHT22;38317;53.084;6.960;2022-09-09T13:24:40;22.60;99.90
52387;DHT22;38317;53.084;6.960;2022-09-09T13:27:26;22.50;99.90
52387;DHT22;38317;53.084;6.960;2022-09-09T13:29:54;22.30;99.90
52387;DHT22;38317;53.084;6.960;2022-09-09T13:32:24;22.20;99.90
52387;DHT22;38317;53.084;6.960;2022-09-09T13:35:00;22.10;99.90
52387;DHT22;38317;53.084;6.960;2022-09-09T13:37:38;22.00;99.90
52387;DHT22;38317;53.084;6.960;2022-09-09T13:40:14;21.90;99.90
52387;DHT22;38317;53.084;6.960;2022-09-09T13:42:42;21.80;99.90
52387;DHT22;38317;53.084;6.960;2022-09-09T13:45:20;21.60;99.90
52387;DHT22;38317;53.084;6.960;2022-09-09T13:47:47;21.50;99.90
52387;DHT22;38317;53.084;6.960;2022-09-09T13:50:22;21.30;99.90
52387;DHT22;38317;53.084;6.960;2022-09-09T13:52:53;21.10;99.90
52387;DHT22;38317;53.084;6.960;2022-09-09T13:55:21;20.80;99.90
52387;DHT22;38317;53.084;6.960;2022-09-09T13:57:54;20.60;99.90
52387;DHT22;38317;53.084;6.960;2022-09-09T14:00:21;20.50;99.90
52387;DHT22;38317;53.084;6.960;2022-09-09T14:02:51;20.30;99.90
52387;DHT22;38317;53.084;6.960;2022-09-09T14:05:17;20.10;99.90
52387;DHT22;38317;53.084;6.960;2022-09-09T14:07:44;20.00;99.90
52387;DHT22;38317;53.084;6.960;2022-09-09T14:10:11;19.90;99.90
52387;DHT22;38317;53.084;6.960;2022-09-09T14:12:37;19.70;99.90
52387;DHT22;38317;53.084;6.960;2022-09-09T14:15:04;19.50;99.90
52387;DHT22;38317;53.084;6.960;2022-09-09T14:17:30;19.30;99.90
52387;DHT22;38317;53.084;6.960;2022-09-09T14:19:57;19.20;99.90
52387;DHT22;38317;53.084;6.960;2022-09-09T14:22:24;19.10;99.90
52387;DHT22;38317;53.084;6.960;2022-09-09T14:24:49;19.00;99.90
52387;DHT22;38317;53.084;6.960;2022-09-09T14:27:16;19.00;99.90
52387;DHT22;38317;53.084;6.960;2022-09-09T14:29:42;18.90;99.90
52387;DHT22;38317;53.084;6.960;2022-09-09T14:32:10;18.90;99.90
52387;DHT22;38317;53.084;6.960;2022-09-09T14:34:36;18.80;99.90
52387;DHT22;38317;53.084;6.960;2022-09-09T14:37:02;18.80;99.90
52387;DHT22;38317;53.084;6.960;2022-09-09T14:39:28;18.80;99.90
52387;DHT22;38317;53.084;6.960;2022-09-09T14:41:53;18.80;99.90
52387;DHT22;38317;53.084;6.960;2022-09-09T14:44:19;18.70;99.90
52387;DHT22;38317;53.084;6.960;2022-09-09T14:46:45;18.70;99.90
52387;DHT22;38317;53.084;6.960;2022-09-09T14:49:11;18.70;99.90
52387;DHT22;38317;53.084;6.960;2022-09-09T14:51:38;18.70;99.90
52387;DHT22;38317;53.084;6.960;2022-09-09T14:54:04;18.80;99.90
52387;DHT22;38317;53.084;6.960;2022-09-09T14:56:32;18.90;99.90
52387;DHT22;38317;53.084;6.960;2022-09-09T14:59:00;18.90;99.90
52387;DHT22;38317;53.084;6.960;2022-09-09T15:01:30;18.90;99.90
52387;DHT22;38317;53.084;6.960;2022-09-09T15:04:02;19.00;99.90
52387;DHT22;38317;53.084;6.960;2022-09-09T15:06:31;19.00;99.90
52387;DHT22;38317;53.084;6.960;2022-09-09T15:08:59;18.90;99.90
52387;DHT22;38317;53.084;6.960;2022-09-09T15:11:31;18.90;99.90
52387;DHT22;38317;53.084;6.960;2022-09-09T15:13:59;18.70;99.90
52387;DHT22;38317;53.084;6.960;2022-09-09T15:16:27;18.60;99.90
52387;DHT22;38317;53.084;6.960;2022-09-09T15:18:55;18.50;99.90
52387;DHT22;38317;53.084;6.960;2022-09-09T15:21:24;18.30;99.90
52387;DHT22;38317;53.084;6.960;2022-09-09T15:23:51;18.20;99.90
52387;DHT22;38317;53.084;6.960;2022-09-09T15:26:17;18.10;99.90
52387;DHT22;38317;53.084;6.960;2022-09-09T15:28:44;18.10;99.90
52387;DHT22;38317;53.084;6.960;2022-09-09T15:31:13;18.00;99.90
52387;DHT22;38317;53.084;6.960;2022-09-09T15:33:56;18.10;99.90
52387;DHT22;38317;53.084;6.960;2022-09-09T15:36:45;18.00;99.90
52387;DHT22;38317;53.084;6.960;2022-09-09T15:39:13;18.00;99.90
52387;DHT22;38317;53.084;6.960;2022-09-09T15:41:42;18.00;99.90
52387;DHT22;38317;53.084;6.960;2022-09-09T15:44:09;18.10;99.90
52387;DHT22;38317;53.084;6.960;2022-09-09T15:46:40;18.20;99.90
52387;DHT22;38317;53.084;6.960;2022-09-09T15:49:14;18.40;99.90
52387;DHT22;38317;53.084;6.960;2022-09-09T15:51:43;18.60;99.90
52387;DHT22;38317;53.084;6.960;2022-09-09T15:54:11;18.80;99.90
52387;DHT22;38317;53.084;6.960;2022-09-09T15:56:37;19.00;99.90
52387;DHT22;38317;53.084;6.960;2022-09-09T15:59:03;19.10;99.90
52387;DHT22;38317;53.084;6.960;2022-09-09T16:01:31;19.10;99.90
52387;DHT22;38317;53.084;6.960;2022-09-09T16:03:58;19.20;99.90
52387;DHT22;38317;53.084;6.960;2022-09-09T16:06:24;19.30;99.90
52387;DHT22;38317;53.084;6.960;2022-09-09T16:08:52;19.40;99.90
52387;DHT22;38317;53.084;6.960;2022-09-09T16:11:24;19.40;99.90
52387;DHT22;38317;53.084;6.960;2022-09-09T16:13:52;19.40;99.90
52387;DHT22;38317;53.084;6.960;2022-09-09T16:16:20;19.40;99.90
52387;DHT22;38317;53.084;6.960;2022-09-09T16:18:49;19.40;99.90
52387;DHT22;38317;53.084;6.960;2022-09-09T16:21:45;19.30;99.90
52387;DHT22;38317;53.084;6.960;2022-09-09T16:24:14;19.30;99.90
52387;DHT22;38317;53.084;6.960;2022-09-09T16:26:42;19.20;99.90
52387;DHT22;38317;53.084;6.960;2022-09-09T16:29:11;19.10;99.90
52387;DHT22;38317;53.084;6.960;2022-09-09T16:31:37;19.10;99.90
52387;DHT22;38317;53.084;6.960;2022-09-09T16:34:03;19.00;99.90
52387;DHT22;38317;53.084;6.960;2022-09-09T16:36:31;19.00;99.90
52387;DHT22;38317;53.084;6.960;2022-09-09T16:39:01;19.00;99.90
52387;DHT22;38317;53.084;6.960;2022-09-09T16:41:29;18.90;99.90
52387;DHT22;38317;53.084;6.960;2022-09-09T16:43:57;18.90;99.90
52387;DHT22;38317;53.084;6.960;2022-09-09T16:46:24;18.70;99.90
52387;DHT22;38317;53.084;6.960;2022-09-09T16:48:50;18.60;99.90
52387;DHT22;38317;53.084;6.960;2022-09-09T16:51:22;18.50;99.90
52387;DHT22;38317;53.084;6.960;2022-09-09T16:53:50;18.50;99.90
52387;DHT22;38317;53.084;6.960;2022-09-09T16:56:24;18.40;99.90
52387;DHT22;38317;53.084;6.960;2022-09-09T16:58:56;18.40;99.90
52387;DHT22;38317;53.084;6.960;2022-09-09T17:01:23;18.30;99.90
52387;DHT22;38317;53.084;6.960;2022-09-09T17:03:53;18.30;99.90
52387;DHT22;38317;53.084;6.960;2022-09-09T17:06:19;18.20;99.90
52387;DHT22;38317;53.084;6.960;2022-09-09T17:08:45;18.20;99.90
52387;DHT22;38317;53.084;6.960;2022-09-09T17:11:15;18.10;99.90
52387;DHT22;38317;53.084;6.960;2022-09-09T17:13:42;18.10;99.90
52387;DHT22;38317;53.084;6.960;2022-09-09T17:16:09;18.00;99.90
52387;DHT22;38317;53.084;6.960;2022-09-09T17:18:36;18.00;99.90
52387;DHT22;38317;53.084;6.960;2022-09-09T17:21:07;18.00;99.90
52387;DHT22;38317;53.084;6.960;2022-09-09T17:23:35;18.00;99.90
52387;DHT22;38317;53.084;6.960;2022-09-09T17:26:05;18.00;99.90
52387;DHT22;38317;53.084;6.960;2022-09-09T17:28:34;18.00;99.90
52387;DHT22;38317;53.084;6.960;2022-09-09T17:31:01;17.90;99.90
52387;DHT22;38317;53.084;6.960;2022-09-09T17:33:35;17.90;99.90
52387;DHT22;38317;53.084;6.960;2022-09-09T17:36:07;17.80;99.90
52387;DHT22;38317;53.084;6.960;2022-09-09T17:38:33;17.80;99.90
52387;DHT22;38317;53.084;6.960;2022-09-09T17:41:14;17.80;99.90
52387;DHT22;38317;53.084;6.960;2022-09-09T17:43:40;17.70;99.90
52387;DHT22;38317;53.084;6.960;2022-09-09T17:46:10;17.60;99.90
52387;DHT22;38317;53.084;6.960;2022-09-09T17:48:36;17.60;99.90